createdAt,value
2022-11-09T00:01:46.088Z,61.10
2022-11-09T00:04:15.212Z,60.80
2022-11-09T00:06:43.024Z,61.30
2022-11-09T00:09:10.800Z,61.70
2022-11-09T00:11:38.895Z,62.20
2022-11-09T00:14:06.931Z,62.80
2022-11-09T00:16:34.742Z,63.10
2022-11-09T00:19:02.507Z,63.50
2022-11-09T00:21:31.676Z,63.80
2022-11-09T00:23:59.481Z,63.60
2022-11-09T00:26:27.956Z,63.40
2022-11-09T00:28:55.732Z,63.50
2022-11-09T00:31:25.176Z,64.10
2022-11-09T00:33:54.133Z,64.40
2022-11-09T00:36:22.701Z,64.60
2022-11-09T00:38:53.988Z,64.80
2022-11-09T00:41:22.248Z,65.00
2022-11-09T00:43:50.616Z,65.00
2022-11-09T00:46:19.083Z,65.30
2022-11-09T00:48:47.665Z,65.10
2022-11-09T00:51:15.462Z,65.20
2022-11-09T00:53:43.611Z,65.70
2022-11-09T00:56:13.787Z,65.10
2022-11-09T00:58:42.274Z,64.90
2022-11-09T01:01:12.168Z,64.90
2022-11-09T01:03:40.892Z,64.20
2022-11-09T01:06:09.257Z,64.40
2022-11-09T01:08:37.327Z,64.60
2022-11-09T01:11:06.640Z,64.60
2022-11-09T01:13:36.450Z,64.50
2022-11-09T01:16:07.618Z,64.50
2022-11-09T01:18:35.716Z,64.70
2022-11-09T01:21:05.381Z,64.80
2022-11-09T01:23:33.849Z,64.50
2022-11-09T01:26:02.943Z,64.30
2022-11-09T01:28:30.943Z,64.40
2022-11-09T01:31:04.826Z,64.10
2022-11-09T01:33:32.820Z,63.20
2022-11-09T01:36:03.668Z,63.50
2022-11-09T01:38:31.422Z,63.70
2022-11-09T01:40:59.324Z,63.50
2022-11-09T01:43:27.400Z,63.70
2022-11-09T01:45:59.162Z,63.70
2022-11-09T01:48:35.716Z,63.40
2022-11-09T01:51:08.357Z,63.00
2022-11-09T01:53:40.303Z,63.40
2022-11-09T01:56:10.587Z,63.20
2022-11-09T01:58:42.553Z,62.70
2022-11-09T02:01:11.308Z,62.80
2022-11-09T02:03:43.767Z,63.50
2022-11-09T02:06:15.455Z,63.30
2022-11-09T02:08:45.460Z,62.90
2022-11-09T02:11:15.333Z,63.00
2022-11-09T02:13:46.214Z,63.00
2022-11-09T02:16:15.733Z,65.10
2022-11-09T02:18:51.293Z,66.40
2022-11-09T02:21:20.821Z,67.60
2022-11-09T02:23:48.692Z,68.30
2022-11-09T02:26:20.499Z,69.20
2022-11-09T02:28:48.336Z,69.60
2022-11-09T02:31:18.415Z,70.60
2022-11-09T02:33:55.216Z,71.90
2022-11-09T02:36:25.005Z,72.70
2022-11-09T02:38:54.782Z,73.40
2022-11-09T02:41:23.606Z,72.60
2022-11-09T02:43:53.263Z,72.50
2022-11-09T02:46:26.237Z,72.20
2022-11-09T02:48:54.025Z,72.20
2022-11-09T02:51:21.771Z,72.10
2022-11-09T02:53:50.856Z,71.80
2022-11-09T02:56:18.630Z,71.60
2022-11-09T02:58:46.446Z,71.90
2022-11-09T03:01:14.275Z,72.30
2022-11-09T03:03:42.174Z,72.10
2022-11-09T03:06:10.110Z,72.50
2022-11-09T03:08:37.903Z,72.80
2022-11-09T03:11:07.193Z,72.60
2022-11-09T03:13:35.316Z,74.30
2022-11-09T03:16:06.336Z,74.40
2022-11-09T03:18:34.140Z,73.80
2022-11-09T03:21:03.494Z,73.30
2022-11-09T03:23:31.641Z,73.50
2022-11-09T03:25:59.513Z,73.90
2022-11-09T03:28:28.641Z,74.40
2022-11-09T03:30:56.450Z,76.10
2022-11-09T03:33:24.214Z,77.20
2022-11-09T03:35:52.204Z,78.60
2022-11-09T03:38:20.148Z,79.60
2022-11-09T03:40:48.011Z,81.10
2022-11-09T03:43:15.900Z,81.30
2022-11-09T03:45:45.065Z,82.30
2022-11-09T03:48:12.861Z,83.10
2022-11-09T03:50:41.159Z,83.10
2022-11-09T03:53:10.407Z,83.10
2022-11-09T03:55:38.518Z,83.20
2022-11-09T03:58:07.536Z,84.00
2022-11-09T04:00:36.216Z,85.50
2022-11-09T04:03:05.351Z,86.00
2022-11-09T04:05:33.284Z,87.50
2022-11-09T04:08:01.095Z,88.10
2022-11-09T04:10:29.304Z,89.10
2022-11-09T04:12:57.100Z,90.20
2022-11-09T04:15:24.928Z,91.10
2022-11-09T04:17:57.018Z,93.80
2022-11-09T04:20:26.801Z,95.60
2022-11-09T04:22:58.849Z,97.40
2022-11-09T04:25:27.560Z,98.70
2022-11-09T04:27:56.602Z,99.70
2022-11-09T04:30:24.505Z,99.90
2022-11-09T04:32:52.290Z,99.90
2022-11-09T04:35:20.151Z,99.90
2022-11-09T04:37:55.929Z,99.90
2022-11-09T04:40:23.833Z,99.90
2022-11-09T04:42:51.982Z,99.90
2022-11-09T04:45:20.165Z,99.90
2022-11-09T04:47:48.452Z,99.90
2022-11-09T04:50:16.695Z,99.90
2022-11-09T04:52:44.454Z,99.90
2022-11-09T04:55:13.607Z,99.90
2022-11-09T04:57:41.360Z,99.90
2022-11-09T05:00:10.597Z,99.90
2022-11-09T05:02:38.691Z,99.90
2022-11-09T05:05:07.485Z,99.90
2022-11-09T05:07:35.276Z,99.90
2022-11-09T05:10:03.063Z,99.90
2022-11-09T05:12:32.942Z,99.10
2022-11-09T05:15:00.779Z,99.10
2022-11-09T05:17:28.602Z,99.20
2022-11-09T05:19:56.382Z,99.40
2022-11-09T05:22:43.781Z,98.60
2022-11-09T05:25:11.590Z,97.90
2022-11-09T05:27:40.836Z,95.80
2022-11-09T05:30:09.775Z,94.40
2022-11-09T05:32:39.682Z,94.70
2022-11-09T05:35:08.303Z,93.70
2022-11-09T05:37:36.064Z,93.00
2022-11-09T05:40:03.963Z,92.70
2022-11-09T05:42:31.732Z,92.50
2022-11-09T05:45:21.081Z,92.10
2022-11-09T05:47:48.847Z,91.60
2022-11-09T05:50:17.284Z,92.50
2022-11-09T05:52:45.055Z,91.00
2022-11-09T05:55:12.869Z,90.60
2022-11-09T05:57:40.671Z,90.80
2022-11-09T06:00:11.437Z,90.50
2022-11-09T06:02:39.276Z,89.50
2022-11-09T06:05:07.523Z,88.80
2022-11-09T06:07:35.300Z,88.50
2022-11-09T06:10:03.141Z,88.10
2022-11-09T06:12:31.246Z,87.50
2022-11-09T06:14:59.011Z,87.30
2022-11-09T06:17:28.270Z,87.70
2022-11-09T06:19:56.028Z,88.20
2022-11-09T06:22:23.816Z,88.90
2022-11-09T06:24:51.584Z,89.10
2022-11-09T06:27:19.657Z,89.40
2022-11-09T06:29:47.435Z,89.10
2022-11-09T06:32:15.225Z,88.80
2022-11-09T06:34:44.347Z,88.40
2022-11-09T06:37:12.147Z,88.00
2022-11-09T06:39:39.899Z,87.30
2022-11-09T06:42:07.732Z,87.90
2022-11-09T06:44:35.539Z,88.00
2022-11-09T06:47:03.309Z,88.10
2022-11-09T06:49:31.290Z,88.50
2022-11-09T06:52:00.445Z,89.30
2022-11-09T06:54:28.424Z,90.00
2022-11-09T06:56:56.524Z,90.80
2022-11-09T06:59:24.301Z,91.30
2022-11-09T07:01:52.124Z,91.70
2022-11-09T07:04:19.989Z,91.70
2022-11-09T07:06:47.907Z,91.80
2022-11-09T07:09:17.327Z,90.80
2022-11-09T07:11:45.097Z,90.50
2022-11-09T07:14:12.891Z,90.00
2022-11-09T07:16:40.696Z,89.90
2022-11-09T07:19:08.484Z,88.40
2022-11-09T07:21:36.276Z,88.40
2022-11-09T07:24:04.174Z,88.10
2022-11-09T07:26:33.369Z,88.50
2022-11-09T07:29:01.157Z,88.60
2022-11-09T07:31:29.310Z,88.60
2022-11-09T07:33:58.271Z,88.20
2022-11-09T07:36:26.092Z,88.20
2022-11-09T07:38:53.887Z,87.70
2022-11-09T07:41:21.683Z,88.10
2022-11-09T07:43:50.901Z,88.60
2022-11-09T07:46:18.847Z,88.10
2022-11-09T07:48:46.650Z,88.30
2022-11-09T07:51:14.426Z,89.30
2022-11-09T07:53:42.214Z,89.60
2022-11-09T07:56:10.170Z,90.60
2022-11-09T07:58:38.031Z,91.40
2022-11-09T08:01:10.286Z,92.40
2022-11-09T08:03:38.123Z,92.60
2022-11-09T08:06:06.161Z,92.20
2022-11-09T08:08:33.937Z,92.40
2022-11-09T08:11:02.322Z,92.80
2022-11-09T08:13:30.298Z,92.90
2022-11-09T08:15:58.071Z,93.00
2022-11-09T08:18:27.187Z,92.80
2022-11-09T08:20:55.200Z,92.60
2022-11-09T08:23:23.185Z,92.50
2022-11-09T08:25:51.440Z,92.20
2022-11-09T08:28:19.946Z,92.00
2022-11-09T08:30:55.113Z,90.80
2022-11-09T08:33:22.898Z,89.40
2022-11-09T08:35:53.391Z,89.50
2022-11-09T08:38:21.482Z,89.60
2022-11-09T08:40:49.524Z,89.60
2022-11-09T08:43:17.401Z,90.20
2022-11-09T08:45:45.657Z,90.20
2022-11-09T08:48:13.934Z,89.70
2022-11-09T08:50:41.781Z,91.20
2022-11-09T08:53:10.965Z,92.40
2022-11-09T08:55:38.763Z,93.50
2022-11-09T08:58:06.555Z,95.50
2022-11-09T09:00:34.377Z,97.10
2022-11-09T09:03:05.805Z,96.60
2022-11-09T09:05:34.184Z,97.00
2022-11-09T09:08:02.425Z,96.50
2022-11-09T09:10:32.248Z,96.80
2022-11-09T09:13:00.941Z,95.80
2022-11-09T09:15:28.771Z,94.70
2022-11-09T09:17:56.534Z,93.80
2022-11-09T09:20:24.334Z,93.10
2022-11-09T09:22:52.121Z,92.30
2022-11-09T09:25:20.180Z,92.00
2022-11-09T09:27:49.278Z,91.40
2022-11-09T09:30:17.299Z,91.10
2022-11-09T09:32:45.095Z,91.10
2022-11-09T09:35:12.947Z,90.90
2022-11-09T09:37:40.723Z,90.10
2022-11-09T09:40:09.705Z,90.40
2022-11-09T09:42:43.024Z,90.40
2022-11-09T09:45:20.093Z,90.30
2022-11-09T09:48:00.274Z,89.20
2022-11-09T09:50:32.313Z,89.00
2022-11-09T09:53:23.117Z,87.70
2022-11-09T09:55:56.035Z,87.60
2022-11-09T09:58:27.201Z,86.40
2022-11-09T10:01:02.551Z,85.50
2022-11-09T10:03:30.336Z,85.20
2022-11-09T10:06:09.667Z,84.60
2022-11-09T10:08:57.016Z,84.80
2022-11-09T10:11:33.123Z,83.90
2022-11-09T10:14:34.270Z,83.40
2022-11-09T10:17:12.156Z,83.90
2022-11-09T10:20:08.841Z,82.90
2022-11-09T10:22:49.592Z,82.20
2022-11-09T10:25:43.313Z,81.80
2022-11-09T10:28:15.076Z,81.30
2022-11-09T10:30:44.184Z,81.10
2022-11-09T10:33:20.738Z,81.30
2022-11-09T10:35:53.553Z,80.10
2022-11-09T10:38:26.247Z,81.50
2022-11-09T10:40:57.735Z,81.00
2022-11-09T10:43:25.634Z,81.40
2022-11-09T10:46:04.636Z,82.20
2022-11-09T10:48:36.196Z,81.20
2022-11-09T10:51:05.163Z,80.90
2022-11-09T10:53:34.589Z,81.60
2022-11-09T10:56:20.237Z,80.60
2022-11-09T10:58:50.308Z,80.40
2022-11-09T11:01:21.019Z,79.50
2022-11-09T11:03:52.500Z,79.00
2022-11-09T11:06:31.206Z,76.40
2022-11-09T11:09:15.544Z,77.00
2022-11-09T11:11:43.341Z,76.20
2022-11-09T11:14:23.104Z,75.10
2022-11-09T11:16:52.806Z,77.00
2022-11-09T11:19:34.926Z,76.20
2022-11-09T11:22:27.374Z,75.70
2022-11-09T11:24:57.677Z,75.10
2022-11-09T11:27:30.548Z,75.90
2022-11-09T11:30:05.124Z,74.80
2022-11-09T11:32:32.980Z,74.10
2022-11-09T11:35:02.848Z,74.00
2022-11-09T11:37:42.107Z,74.20
2022-11-09T11:40:16.840Z,74.70
2022-11-09T11:43:08.045Z,75.20
2022-11-09T11:45:42.376Z,75.10
2022-11-09T11:48:37.130Z,73.80
2022-11-09T11:51:12.545Z,75.40
2022-11-09T11:54:00.492Z,74.60
2022-11-09T11:56:33.229Z,74.20
2022-11-09T11:59:24.692Z,74.80
2022-11-09T12:02:06.244Z,73.00
2022-11-09T12:04:52.858Z,72.70
2022-11-09T12:07:32.145Z,72.60
2022-11-09T12:10:13.393Z,73.50
2022-11-09T12:12:54.508Z,73.40
2022-11-09T12:15:30.744Z,72.50
2022-11-09T12:18:11.442Z,72.70
2022-11-09T12:20:44.373Z,72.30
2022-11-09T12:23:35.544Z,72.80
2022-11-09T12:26:16.989Z,72.00
2022-11-09T12:29:00.389Z,71.00
2022-11-09T12:31:36.248Z,71.20
2022-11-09T12:34:13.285Z,69.70
2022-11-09T12:36:47.980Z,70.20
2022-11-09T12:39:23.528Z,70.50
2022-11-09T12:41:54.169Z,70.50
2022-11-09T12:44:27.456Z,70.10
2022-11-09T12:47:05.789Z,69.80
2022-11-09T12:49:39.048Z,70.40
2022-11-09T12:52:08.507Z,70.70
2022-11-09T12:54:41.277Z,70.20
2022-11-09T12:57:12.267Z,70.50
2022-11-09T12:59:49.733Z,70.90
2022-11-09T13:02:25.599Z,71.10
2022-11-09T13:04:58.305Z,70.70
2022-11-09T13:07:41.644Z,72.10
2022-11-09T13:10:25.996Z,72.20
2022-11-09T13:13:04.001Z,72.80
2022-11-09T13:15:34.114Z,73.30
2022-11-09T13:18:05.849Z,73.70
2022-11-09T13:20:58.754Z,73.10
2022-11-09T13:23:59.250Z,73.00
2022-11-09T13:26:59.404Z,73.80
2022-11-09T13:29:28.541Z,75.00
2022-11-09T13:32:33.137Z,74.70
2022-11-09T13:35:02.328Z,74.90
2022-11-09T13:37:49.160Z,74.60
2022-11-09T13:40:48.387Z,75.00
2022-11-09T13:43:25.247Z,75.20
2022-11-09T13:45:56.166Z,74.90
2022-11-09T13:48:34.588Z,75.20
2022-11-09T13:51:04.863Z,75.30
2022-11-09T13:53:52.742Z,75.80
2022-11-09T13:56:27.763Z,76.30
2022-11-09T13:59:01.534Z,76.80
2022-11-09T14:01:34.127Z,78.40
2022-11-09T14:04:03.709Z,78.90
2022-11-09T14:06:33.579Z,79.00
2022-11-09T14:09:02.132Z,80.10
2022-11-09T14:11:41.221Z,81.10
2022-11-09T14:14:27.921Z,81.40
2022-11-09T14:17:02.842Z,82.30
2022-11-09T14:19:39.914Z,82.70
2022-11-09T14:22:15.994Z,83.60
2022-11-09T14:24:44.081Z,83.80
2022-11-09T14:27:18.316Z,83.80
2022-11-09T14:29:53.598Z,83.00
2022-11-09T14:32:27.573Z,83.50
2022-11-09T14:35:10.538Z,85.30
2022-11-09T14:37:43.613Z,85.10
2022-11-09T14:40:19.093Z,85.90
2022-11-09T14:42:52.843Z,85.40
2022-11-09T14:45:22.450Z,85.40
2022-11-09T14:47:55.617Z,86.30
2022-11-09T14:50:25.588Z,86.30
2022-11-09T14:52:55.471Z,86.20
2022-11-09T14:55:25.274Z,86.50
2022-11-09T14:57:56.066Z,86.50
2022-11-09T15:00:29.207Z,87.20
2022-11-09T15:02:57.423Z,87.00
2022-11-09T15:05:38.980Z,87.80
2022-11-09T15:08:15.883Z,87.80
2022-11-09T15:10:50.248Z,88.30
2022-11-09T15:13:19.142Z,88.40
2022-11-09T15:15:54.915Z,88.40
2022-11-09T15:18:33.437Z,88.80
2022-11-09T15:21:12.908Z,88.90
2022-11-09T15:23:41.957Z,88.70
2022-11-09T15:26:29.225Z,89.00
2022-11-09T15:28:57.040Z,89.20
2022-11-09T15:31:28.222Z,89.80
2022-11-09T15:33:57.581Z,90.50
2022-11-09T15:36:32.130Z,90.70
2022-11-09T15:39:04.401Z,91.20
2022-11-09T15:41:32.500Z,91.60
2022-11-09T15:44:00.432Z,94.10
2022-11-09T15:46:36.053Z,97.20
2022-11-09T15:49:16.812Z,98.90
2022-11-09T15:51:46.054Z,99.90
2022-11-09T15:54:14.672Z,99.90
2022-11-09T15:56:43.337Z,99.90
2022-11-09T15:59:20.003Z,99.90
2022-11-09T16:01:49.208Z,99.90
2022-11-09T16:04:17.018Z,99.90
2022-11-09T16:06:46.798Z,99.90
2022-11-09T16:09:14.936Z,99.90
2022-11-09T16:11:42.869Z,99.90
2022-11-09T16:14:10.725Z,99.90
2022-11-09T16:16:38.482Z,99.90
2022-11-09T16:19:07.611Z,99.90
2022-11-09T16:21:35.528Z,99.90
2022-11-09T16:24:03.322Z,99.90
2022-11-09T16:26:31.914Z,99.90
2022-11-09T16:29:00.350Z,99.90
2022-11-09T16:31:50.193Z,99.90
2022-11-09T16:34:17.247Z,99.90
2022-11-09T16:36:50.828Z,99.90
2022-11-09T16:39:18.903Z,99.90
2022-11-09T16:41:49.973Z,99.90
2022-11-09T16:44:23.653Z,99.90
2022-11-09T16:46:52.030Z,99.90
2022-11-09T16:49:21.191Z,99.90
2022-11-09T16:51:48.953Z,99.90
2022-11-09T16:54:16.735Z,99.90
2022-11-09T16:56:44.848Z,99.90
2022-11-09T16:59:12.842Z,99.90
2022-11-09T17:01:40.837Z,99.90
2022-11-09T17:04:08.668Z,99.90
2022-11-09T17:06:37.831Z,99.90
2022-11-09T17:09:05.642Z,99.90
2022-11-09T17:11:33.657Z,99.90
2022-11-09T17:14:01.717Z,99.90
2022-11-09T17:16:29.554Z,99.90
2022-11-09T17:18:58.173Z,99.90
2022-11-09T17:21:28.045Z,99.90
2022-11-09T17:23:58.131Z,99.90
2022-11-09T17:26:26.732Z,99.90
2022-11-09T17:28:54.858Z,99.90
2022-11-09T17:31:24.193Z,99.90
2022-11-09T17:33:53.898Z,99.90
2022-11-09T17:36:41.913Z,99.90
2022-11-09T17:39:13.196Z,99.90
2022-11-09T17:41:42.905Z,99.90
2022-11-09T17:44:10.950Z,99.90
2022-11-09T17:46:38.893Z,99.90
2022-11-09T17:49:09.965Z,99.90
2022-11-09T17:51:38.713Z,99.90
2022-11-09T17:54:06.790Z,99.90
2022-11-09T17:56:35.995Z,99.90
2022-11-09T17:59:05.342Z,99.40
2022-11-09T18:01:39.376Z,98.90
2022-11-09T18:04:09.489Z,97.70
2022-11-09T18:06:38.214Z,97.20
2022-11-09T18:11:55.892Z,94.50
2022-11-09T18:14:23.660Z,94.10
2022-11-09T18:16:51.444Z,93.80
2022-11-09T18:19:19.235Z,93.20
2022-11-09T18:21:47.323Z,93.10
2022-11-09T18:24:15.316Z,93.20
2022-11-09T18:26:43.132Z,92.10
2022-11-09T18:29:12.251Z,92.60
2022-11-09T18:31:39.998Z,92.70
2022-11-09T18:34:07.761Z,93.40
2022-11-09T18:36:35.533Z,94.20
2022-11-09T18:39:04.571Z,95.20
2022-11-09T18:41:32.583Z,96.00
2022-11-09T18:44:00.374Z,96.60
2022-11-09T18:46:32.993Z,97.20
2022-11-09T18:49:00.854Z,97.70
2022-11-09T18:51:28.649Z,98.60
2022-11-09T18:53:56.430Z,98.70
2022-11-09T18:56:25.793Z,99.40
2022-11-09T18:58:55.276Z,99.90
2022-11-09T19:01:24.250Z,99.90
2022-11-09T19:03:59.257Z,99.90
2022-11-09T19:06:27.681Z,99.90
2022-11-09T19:09:21.456Z,99.90
2022-11-09T19:11:49.217Z,99.90
2022-11-09T19:14:17.025Z,99.90
2022-11-09T19:16:44.960Z,99.90
2022-11-09T19:19:15.415Z,99.90
2022-11-09T19:21:46.099Z,99.90
2022-11-09T19:24:16.399Z,99.90
2022-11-09T19:26:44.463Z,99.90
2022-11-09T19:29:13.563Z,99.90
2022-11-09T19:31:43.164Z,99.20
2022-11-09T19:34:11.301Z,97.20
2022-11-09T19:36:41.511Z,96.10
2022-11-09T19:39:09.565Z,95.40
2022-11-09T19:41:37.453Z,95.70
2022-11-09T19:44:07.058Z,94.90
2022-11-09T19:46:36.608Z,94.80
2022-11-09T19:49:05.364Z,95.20
2022-11-09T19:51:34.602Z,95.40
2022-11-09T19:54:05.884Z,95.70
2022-11-09T19:56:36.831Z,95.30
2022-11-09T19:59:05.519Z,94.40
2022-11-09T20:01:33.568Z,94.00
2022-11-09T20:04:06.403Z,94.00
2022-11-09T20:06:38.349Z,94.00
2022-11-09T20:09:07.523Z,93.70
2022-11-09T20:11:52.956Z,93.80
2022-11-09T20:14:21.133Z,93.90
2022-11-09T20:16:49.088Z,94.20
2022-11-09T20:19:17.005Z,95.70
2022-11-09T20:21:45.452Z,96.50
2022-11-09T20:24:15.138Z,97.50
2022-11-09T20:26:43.905Z,98.40
2022-11-09T20:29:11.719Z,98.90
2022-11-09T20:31:39.959Z,98.70
2022-11-09T20:34:08.036Z,99.30
2022-11-09T20:36:36.020Z,99.70
2022-11-09T20:39:03.931Z,99.90
2022-11-09T20:41:33.353Z,99.90
2022-11-09T20:44:01.169Z,99.90
2022-11-09T20:46:34.385Z,99.90
2022-11-09T20:49:03.916Z,99.90
2022-11-09T20:51:32.112Z,99.90
2022-11-09T20:54:03.960Z,99.90
2022-11-09T20:56:37.986Z,99.90
2022-11-09T20:59:06.329Z,99.90
2022-11-09T21:01:34.691Z,99.90
2022-11-09T21:04:02.905Z,99.90
2022-11-09T21:06:31.080Z,99.90
2022-11-09T21:09:00.862Z,99.90
2022-11-09T21:11:35.394Z,99.90
2022-11-09T21:14:04.887Z,99.90
2022-11-09T21:16:32.653Z,99.90
2022-11-09T21:19:00.425Z,99.90
2022-11-09T21:21:33.485Z,99.90
2022-11-09T21:24:22.079Z,99.90
2022-11-09T21:27:07.543Z,99.90
2022-11-09T21:29:56.480Z,99.90
2022-11-09T21:32:25.082Z,99.90
2022-11-09T21:34:53.004Z,99.90
2022-11-09T21:37:20.862Z,99.90
2022-11-09T21:39:48.664Z,99.90
2022-11-09T21:42:16.859Z,99.90
2022-11-09T21:44:46.044Z,99.90
2022-11-09T21:47:13.859Z,99.90
2022-11-09T21:49:41.801Z,99.90
2022-11-09T21:52:09.615Z,99.90
2022-11-09T21:54:37.398Z,99.90
2022-11-09T21:57:05.158Z,99.90
2022-11-09T21:59:32.977Z,99.90
2022-11-09T22:02:02.124Z,99.90
2022-11-09T22:04:29.897Z,99.90
2022-11-09T22:06:57.771Z,99.90
2022-11-09T22:09:25.609Z,99.90
2022-11-09T22:12:10.886Z,99.90
2022-11-09T22:14:56.400Z,99.90
2022-11-09T22:17:25.509Z,99.90
2022-11-09T22:20:10.902Z,99.90
2022-11-09T22:22:38.683Z,99.90
2022-11-09T22:25:07.948Z,99.90
2022-11-09T22:27:35.715Z,99.90
2022-11-09T22:30:03.931Z,99.90
2022-11-09T22:32:33.091Z,99.90
2022-11-09T22:35:00.861Z,99.90
2022-11-09T22:37:28.641Z,99.90
2022-11-09T22:39:56.422Z,99.90
2022-11-09T22:42:24.197Z,99.90
2022-11-09T22:44:51.955Z,99.90
2022-11-09T22:47:19.753Z,99.90
2022-11-09T22:49:48.864Z,99.90
2022-11-09T22:52:18.199Z,99.90
2022-11-09T22:54:45.992Z,99.90
2022-11-09T22:57:13.773Z,99.90
2022-11-09T22:59:41.738Z,99.90
2022-11-09T23:02:09.518Z,99.90
2022-11-09T23:04:37.436Z,99.90
2022-11-09T23:07:06.574Z,99.90
2022-11-09T23:09:34.456Z,99.90
2022-11-09T23:12:02.221Z,99.90
2022-11-09T23:14:47.485Z,99.90
2022-11-09T23:17:29.193Z,99.90
2022-11-09T23:19:56.987Z,99.90
2022-11-09T23:22:26.111Z,99.90
2022-11-09T23:25:11.340Z,99.90
2022-11-09T23:27:39.133Z,99.90
2022-11-09T23:30:07.722Z,99.90
2022-11-09T23:32:35.500Z,99.90
2022-11-09T23:35:03.323Z,99.90
2022-11-09T23:37:32.429Z,99.90
2022-11-09T23:40:00.205Z,99.90
2022-11-09T23:42:27.974Z,99.90
2022-11-09T23:44:55.895Z,99.90
2022-11-09T23:47:23.663Z,99.90
2022-11-09T23:49:51.451Z,99.90
2022-11-09T23:52:19.415Z,99.90
2022-11-09T23:54:48.539Z,99.90
2022-11-09T23:57:16.295Z,99.90
2022-11-09T23:59:44.075Z,99.90
